Date,TemperatureHighF,TemperatureAvgF,TemperatureLowF,DewpointHighF,DewpointAvgF,DewpointLowF,HumidityHigh,HumidityAvg,HumidityLow,PressureMaxIn,PressureMinIn,WindSpeedMaxMPH,WindSpeedAvgMPH,GustSpeedMaxMPH,PrecipitationSumIn
2013-1-1,48.6,46.3,43.1,48.0,40.8,29.0,97,82,51,30.11,29.94,0,-14,0,0.18
2013-1-2,48.2,44.8,41.2,47.0,42.5,39.0,97,92,79,30.20,29.93,0,0,0,0.13
2013-1-3,44.5,40.5,32.1,39.0,37.5,31.0,95,89,78,30.28,30.16,0,0,0,0.00
2013-1-4,50.5,38.8,28.3,30.0,26.4,23.0,95,66,36,30.34,30.20,0,0,0,0.00
2013-1-5,50.5,38.3,27.4,33.0,27.7,24.0,89,68,41,30.40,30.28,0,0,0,0.00
2013-1-6,50.0,43.0,38.5,39.0,37.0,33.0,91,80,65,30.25,30.07,0,0,0,0.02
2013-1-7,51.9,41.3,33.3,36.0,33.1,31.0,92,75,50,30.45,30.19,0,0,0,0.00
2013-1-8,54.2,42.2,30.3,41.0,35.8,28.0,94,79,57,30.45,30.38,0,0,0,0.00
2013-1-9,65.5,50.4,36.8,53.0,44.6,35.0,95,82,61,30.46,30.36,0,0,0,0.00
2013-1-10,63.7,53.1,46.1,49.0,45.3,40.0,94,76,57,30.54,30.42,0,0,0,0.00
2013-1-11,49.2,46.5,42.0,49.0,43.7,37.0,98,91,65,30.45,30.16,0,0,0,0.15
2013-1-12,69.3,57.1,49.1,64.0,55.6,49.0,99,95,84,30.18,30.10,0,0,0,0.01
2013-1-13,73.6,62.0,53.5,63.0,57.8,53.0,100,87,67,30.14,30.05,0,0,0,0.00
2013-1-14,65.0,62.6,58.9,63.0,60.3,57.0,98,92,85,30.15,30.08,0,0,0,0.08
2013-1-15,57.0,46.0,44.2,55.0,45.0,43.0,98,96,93,30.25,30.07,1,0,0,0.02
2013-1-16,49.3,45.4,42.3,49.0,45.0,42.0,98,98,97,30.09,29.98,0,0,0,0.10
2013-1-17,50.3,46.1,33.6,50.0,45.5,33.0,98,98,95,30.17,29.92,2,0,0,0.68
2013-1-18,44.7,36.4,30.2,34.0,32.0,29.0,98,85,61,30.55,30.16,0,0,0,0.12
2013-1-19,52.3,38.1,26.6,35.0,30.4,25.0,96,77,43,30.52,30.18,0,0,0,0.00
2013-1-20,62.4,46.3,33.8,39.0,34.7,32.0,94,68,35,30.17,30.00,4,0,0,0.01
2013-1-21,58.7,45.4,30.8,36.0,29.9,18.0,95,60,32,30.09,29.87,2,0,0,0.00
2013-1-22,43.5,34.7,27.6,23.0,10.2,0.0,53,37,20,30.30,29.96,4,0,0,0.00
2013-1-23,41.1,30.1,20.7,21.0,13.6,5.0,77,52,33,30.41,30.08,0,0,0,0.00
2013-1-24,36.8,32.3,26.3,25.0,14.6,5.0,74,50,30,30.54,29.99,2,0,0,0.00
2013-1-25,27.9,25.3,22.7,26.0,16.2,7.0,93,70,44,30.55,30.15,0,0,0,0.02
2013-1-26,36.0,30.8,27.4,34.0,29.3,25.0,95,94,90,30.43,30.12,0,-14,0,0.08
2013-1-27,40.3,31.9,24.9,31.0,27.6,24.0,95,84,63,30.63,30.44,0,-14,0,0.03
2013-1-28,51.3,41.6,32.5,48.0,37.2,29.0,94,84,70,30.53,30.24,1,0,0,0.08
2013-1-29,72.9,58.8,46.4,59.0,52.7,45.0,96,81,57,30.25,30.06,4,0,0,0.00
2013-1-30,71.3,66.6,60.9,64.0,62.1,58.0,93,86,74,30.06,29.39,4,0,0,0.12
2013-1-31,65.0,47.8,37.1,62.0,32.4,21.0,91,58,34,30.02,29.43,6,1,0,0.05
2013-2-1,40.9,35.6,28.5,29.0,16.0,7.0,69,47,28,30.41,29.89,4,0,0,0.00
2013-2-2,44.9,33.3,21.3,33.0,14.7,10.0,78,49,31,30.42,30.05,2,0,0,0.00
2013-2-3,49.3,42.2,36.8,35.0,30.3,25.0,89,65,46,30.04,29.86,2,0,0,0.00
2013-2-4,48.7,39.3,28.3,29.0,24.7,20.0,84,58,37,30.16,30.01,2,0,0,0.00
2013-2-5,59.4,47.0,39.5,38.0,34.0,29.0,77,62,41,30.02,29.89,0,0,0,0.01
2013-2-6,61.4,46.3,32.3,37.0,31.4,26.0,93,62,26,30.26,29.98,0,0,0,0.00
2013-2-7,47.5,41.7,37.0,42.0,36.3,30.0,96,81,67,30.35,30.02,0,0,0,0.33
2013-2-8,54.5,45.6,39.0,47.0,40.6,30.0,97,83,60,30.06,29.83,2,0,0,0.37
2013-2-9,52.7,41.1,30.3,30.0,26.5,22.0,88,59,31,30.37,30.06,4,0,0,0.00
2013-2-10,52.8,39.8,28.1,40.0,26.5,23.0,89,63,32,30.51,30.24,0,0,0,0.05
2013-2-11,62.5,54.7,43.3,60.0,52.8,40.0,98,93,85,30.23,29.92,0,0,0,0.04
2013-2-12,59.4,53.3,46.9,55.0,37.5,29.0,92,58,34,30.09,29.91,1,0,0,0.01
2013-2-13,49.2,46.1,43.1,46.0,43.8,37.0,97,92,69,29.96,29.63,0,0,0,0.36
2013-2-14,52.1,42.4,32.5,37.0,34.2,31.0,96,75,48,30.08,29.84,4,0,0,0.03
2013-2-15,62.1,45.2,30.8,40.0,34.4,29.0,97,71,31,30.10,29.93,5,0,0,0.07
2013-2-16,47.4,37.5,31.7,37.0,33.5,28.0,96,86,67,29.98,29.85,1,0,0,0.25
2013-2-17,38.2,30.9,25.4,27.0,17.3,10.0,84,60,31,30.30,29.93,6,1,0,0.00
2013-2-18,52.2,35.5,20.1,26.0,20.3,17.0,91,59,29,30.44,30.28,2,0,0,0.04
2013-2-19,47.6,39.0,35.0,47.0,33.0,26.0,96,80,60,30.27,29.93,2,0,0,0.10
2013-2-20,52.7,42.9,30.7,28.0,22.1,16.0,90,46,24,30.16,30.02,5,1,0,0.00
2013-2-21,56.3,40.6,28.0,27.0,22.2,19.0,80,51,25,30.28,30.13,2,0,0,0.00
2013-2-22,43.2,37.0,33.2,36.0,32.8,24.0,96,86,47,30.36,30.16,1,0,0,0.29
2013-2-23,43.6,40.2,36.8,43.0,39.4,36.0,97,97,96,30.15,29.83,1,0,0,0.47
2013-2-24,64.3,48.9,39.0,44.0,38.4,30.0,98,73,31,30.04,29.81,5,0,0,0.04
2013-2-25,42.4,38.6,34.1,35.0,27.6,24.0,77,65,52,30.24,30.05,3,0,0,0.00
2013-2-26,55.7,44.3,35.8,55.0,41.1,28.0,98,89,70,30.17,29.57,4,0,0,0.01
2013-2-27,59.4,49.6,42.9,45.0,41.1,37.0,96,75,48,29.79,29.62,5,1,0,0.01
2013-2-28,50.0,43.0,35.4,40.0,33.6,28.0,94,71,46,29.86,29.70,5,0,0,0.00
2013-3-1,47.6,40.0,29.0,32.0,29.6,27.0,93,68,50,29.93,29.85,4,0,0,0.00
2013-3-2,47.1,38.8,29.2,31.0,27.5,21.0,90,66,49,29.94,29.82,4,0,0,0.07
2013-3-3,47.9,36.5,30.1,24.0,21.4,19.0,69,56,38,30.00,29.85,5,0,0,0.00
2013-3-4,52.6,37.5,26.9,25.0,18.9,15.0,70,50,24,30.13,29.99,6,1,0,0.00
2013-3-5,47.2,41.5,34.7,44.0,35.8,25.0,97,81,52,30.10,29.58,2,-28,0,0.15
2013-3-6,47.0,42.2,37.2,43.0,34.0,29.0,97,74,57,30.04,29.52,7,-26,0,0.02
2013-3-7,54.3,42.9,34.2,33.0,30.3,26.0,81,62,45,30.25,30.04,6,0,0,0.00
2013-3-8,58.1,45.1,34.0,29.0,27.2,25.0,75,52,31,30.30,30.16,5,1,0,0.00
2013-3-9,65.3,48.2,35.7,34.0,29.8,27.0,75,52,25,30.35,30.24,3,0,0,0.00
2013-3-10,67.5,50.2,33.3,35.0,30.5,24.0,89,54,20,30.34,30.21,3,0,0,0.00
2013-3-11,68.9,54.1,38.6,55.0,44.2,32.0,83,70,53,30.25,29.94,4,0,0,0.00
2013-3-12,70.4,61.6,51.7,62.0,53.9,35.0,97,78,48,29.95,29.76,5,1,0,0.46
2013-3-13,56.3,47.1,36.2,34.0,29.4,21.0,88,53,30,30.14,29.95,7,1,0,0.00
2013-3-14,56.5,41.5,30.3,26.0,20.8,19.0,68,46,23,30.26,30.11,2,0,0,0.00
2013-3-15,62.9,47.8,28.8,37.0,29.9,23.0,83,53,34,30.20,29.90,7,1,0,0.00
2013-3-16,78.7,61.6,46.2,54.0,45.2,37.0,78,57,36,29.90,29.64,6,1,0,0.00
2013-3-17,63.5,51.6,41.4,54.0,45.5,38.0,93,80,69,30.18,29.82,5,1,0,0.00
2013-3-18,42.4,40.3,38.2,41.0,39.0,37.0,97,95,92,30.21,29.88,2,0,0,0.28
2013-3-19,68.1,52.2,40.3,46.0,33.6,12.0,97,61,19,30.03,29.83,6,1,0,0.00
2013-3-20,57.7,48.4,39.8,28.0,16.9,10.0,64,30,19,30.12,29.80,5,0,0,0.00
2013-3-21,44.8,40.1,32.5,34.0,20.6,12.0,78,48,31,29.99,29.74,4,1,0,0.00
2013-3-22,53.9,38.8,25.2,25.0,16.5,14.0,70,43,21,30.10,29.98,4,0,0,0.00
2013-3-23,56.7,45.1,36.4,33.0,28.4,24.0,74,54,36,30.07,29.92,1,0,0,0.00
2013-3-24,41.3,38.6,36.7,39.0,35.5,32.0,96,89,76,29.94,29.59,3,0,0,0.70
2013-3-25,48.6,41.2,35.6,38.0,31.1,25.0,96,71,42,29.82,29.58,5,1,0,0.00
2013-3-26,48.9,42.5,32.4,31.0,28.5,25.0,82,59,48,30.11,29.83,4,0,0,0.00
2013-3-27,53.5,42.9,35.4,28.0,26.1,23.0,73,54,32,30.24,30.12,7,1,0,0.00
2013-3-28,58.5,44.8,32.8,29.0,26.2,25.0,78,51,28,30.30,30.16,8,1,0,0.00
2013-3-29,60.4,45.8,30.3,33.0,28.3,25.0,87,55,28,30.34,30.19,5,0,0,0.00
2013-3-30,68.3,52.4,40.2,45.0,36.5,29.0,83,58,30,30.25,30.09,4,0,0,0.00
2013-3-31,68.3,57.1,48.1,58.0,51.8,45.0,97,83,65,30.10,29.81,5,1,0,0.60
2013-4-1,73.0,60.8,53.9,55.0,48.5,38.0,97,69,33,29.97,29.81,6,1,0,0.02
2013-4-2,62.2,50.3,37.9,37.0,30.0,22.0,80,49,24,30.16,29.97,6,0,0,0.00
2013-4-3,61.5,49.2,40.9,33.0,24.9,20.0,57,40,22,30.30,30.15,2,0,0,0.00
2013-4-4,47.7,42.7,39.5,40.0,33.1,23.0,96,72,43,30.38,29.94,4,0,0,0.62
2013-4-5,64.3,49.0,39.6,49.0,43.1,39.0,97,82,49,30.02,29.89,1,0,0,0.06
2013-4-6,64.7,52.8,43.0,41.0,34.0,26.0,89,53,29,30.28,30.02,5,0,0,0.00
2013-4-7,73.0,57.9,38.8,47.0,41.4,35.0,88,58,35,30.29,30.11,4,0,0,0.00
2013-4-8,79.5,66.7,51.6,57.0,52.8,46.0,93,64,39,30.17,30.04,4,0,0,0.00
2013-4-9,86.1,70.8,56.8,60.0,57.4,55.0,93,65,39,30.17,30.04,4,1,0,0.00
2013-4-10,87.9,74.5,62.1,63.0,60.0,58.0,89,63,38,30.09,29.93,5,1,0,0.00
2013-4-11,81.6,72.1,62.9,67.0,61.7,58.0,90,71,50,29.99,29.78,5,1,0,0.00
2013-4-12,82.9,72.8,65.6,69.0,64.3,53.0,96,77,47,29.79,29.59,5,1,0,0.56
2013-4-13,75.5,64.9,53.2,49.0,43.6,40.0,72,48,29,30.00,29.74,5,0,0,0.00
2013-4-14,80.2,63.8,46.3,55.0,45.3,39.0,93,58,24,30.11,30.00,2,0,0,0.00
2013-4-15,70.0,64.6,57.8,59.0,57.4,55.0,94,78,63,30.21,30.02,2,0,0,0.01
2013-4-16,76.0,66.2,59.7,62.0,59.5,58.0,95,80,59,30.30,30.19,1,0,0,0.00
2013-4-17,80.9,69.8,59.1,66.0,62.4,57.0,97,79,54,30.23,30.10,1,0,0,0.00
2013-4-18,79.0,70.9,62.0,64.0,60.9,58.0,92,72,53,30.19,30.03,2,0,0,0.00
2013-4-19,82.7,71.1,65.5,69.0,65.8,62.0,97,84,59,30.05,29.70,4,1,0,0.57
2013-4-20,65.4,55.5,47.5,65.0,43.1,35.0,97,66,35,30.28,29.81,3,0,0,0.05
2013-4-21,60.8,52.0,43.5,44.0,39.8,36.0,92,65,46,30.50,30.28,1,0,0,0.00
2013-4-22,60.4,50.3,39.2,46.0,39.4,36.0,87,68,47,30.50,30.28,2,0,0,0.00
2013-4-23,50.2,49.6,48.8,46.0,46.0,46.0,90,87,85,30.29,30.25,0,0,0,0.00
2013-4-24,76.0,68.5,51.9,58.0,56.4,51.0,97,67,49,30.15,29.97,3,1,0,0.00
2013-4-25,70.6,61.5,52.1,58.0,46.6,40.0,88,60,36,30.27,30.01,5,0,0,0.00
2013-4-26,71.2,58.8,45.3,47.0,42.3,36.0,92,60,28,30.43,30.27,2,0,0,0.00
2013-4-27,72.0,62.4,52.8,55.0,47.5,41.0,84,61,37,30.38,30.26,1,0,0,0.00
2013-4-28,60.7,57.4,54.3,57.0,53.0,49.0,96,86,74,30.27,30.11,0,0,0,0.28
2013-4-29,68.9,61.4,55.4,64.0,59.7,55.0,98,94,79,30.10,29.97,1,0,0,0.65
2013-4-30,65.5,61.1,58.2,61.0,58.4,56.0,97,91,80,30.18,30.00,2,0,0,0.00
2013-5-1,61.7,59.1,57.8,59.0,57.0,56.0,94,92,90,30.33,30.17,4,0,0,0.00
2013-5-2,61.8,58.6,55.6,58.0,56.1,53.0,96,91,86,30.34,30.27,2,0,0,0.00
2013-5-3,67.7,57.8,49.7,56.0,50.6,45.0,95,78,51,30.28,30.18,2,0,0,0.00
2013-5-4,62.2,55.2,49.8,54.0,49.4,46.0,89,81,71,30.23,30.09,2,0,0,0.04
2013-5-5,59.2,55.0,50.1,56.0,51.3,47.0,92,87,80,30.11,30.00,4,0,0,0.00
2013-5-6,63.5,59.6,56.2,63.0,58.7,55.0,99,97,91,30.01,29.84,2,0,0,0.98
2013-5-7,68.6,58.7,51.4,60.0,54.5,51.0,99,87,55,29.95,29.86,1,0,0,0.02
2013-5-8,70.1,60.9,53.5,60.0,56.4,52.0,97,86,66,30.01,29.93,1,0,0,0.27
2013-5-9,79.1,66.1,55.7,63.0,58.7,55.0,99,80,52,30.06,29.98,2,0,0,0.01
2013-5-10,84.8,71.2,56.8,64.0,60.7,55.0,97,73,43,30.06,29.94,2,0,0,0.00
2013-5-11,79.3,71.4,67.2,69.0,64.8,60.0,97,80,58,29.95,29.79,1,0,0,0.21
2013-5-12,72.4,65.4,57.7,66.0,51.6,37.0,97,65,35,30.03,29.78,4,0,0,0.00
2013-5-13,65.3,56.7,46.1,44.0,39.1,34.0,85,55,33,30.18,30.04,1,0,0,0.00
2013-5-14,69.4,57.4,41.8,47.0,41.0,37.0,91,58,33,30.26,30.08,2,0,0,0.00
2013-5-15,87.4,69.3,54.2,65.0,55.7,45.0,81,63,45,30.09,29.89,4,0,0,0.00
2013-5-16,84.6,74.8,64.1,64.0,61.9,59.0,91,66,44,29.97,29.89,4,0,0,0.00
2013-5-17,86.6,74.4,63.4,66.0,63.2,60.0,94,71,45,30.07,29.97,1,0,0,0.00
2013-5-18,75.7,69.3,64.1,70.0,65.8,61.0,97,88,76,30.16,30.06,2,0,0,1.01
2013-5-19,76.0,68.5,63.9,71.0,66.7,63.0,99,94,77,30.15,30.06,1,0,0,0.76
2013-5-20,74.0,68.8,67.3,71.0,68.1,67.0,99,98,90,30.11,30.03,0,0,0,0.98
2013-5-21,82.0,72.9,67.8,74.0,70.0,67.0,99,91,72,30.05,29.94,1,0,0,0.02
2013-5-22,83.2,74.2,69.8,72.0,69.1,68.0,95,85,63,30.03,29.90,2,0,0,0.00
2013-5-23,79.1,73.0,68.2,70.0,68.8,67.0,98,87,69,29.95,29.81,1,0,0,0.22
2013-5-24,69.1,64.9,56.5,66.0,54.5,41.0,97,72,40,30.19,29.81,5,0,0,0.02
2013-5-25,73.1,58.7,45.6,52.0,43.2,36.0,89,61,31,30.27,30.14,2,0,0,0.00
2013-5-26,73.2,60.5,48.7,54.0,47.7,44.0,89,66,36,30.29,30.18,4,0,0,0.00
2013-5-27,78.9,65.6,51.8,58.0,54.0,50.0,96,70,42,30.29,30.15,2,0,0,0.00
2013-5-28,82.8,72.4,62.5,67.0,63.4,56.0,93,75,58,30.25,30.14,4,0,0,0.00
2013-5-29,83.6,74.3,63.9,67.0,64.8,62.0,94,73,55,30.24,30.15,3,0,0,0.00
2013-5-30,84.3,74.7,64.2,69.0,65.5,62.0,95,75,50,30.27,30.17,2,0,0,0.00
2013-5-31,85.2,76.5,67.7,70.0,67.8,66.0,94,76,53,30.22,30.10,2,0,0,0.00
2013-6-1,86.0,77.7,68.9,70.0,67.8,66.0,93,73,51,30.14,30.02,2,0,0,0.00
2013-6-2,85.2,76.8,69.5,72.0,68.2,66.0,91,75,57,30.05,29.90,2,0,0,0.04
2013-6-3,80.1,72.9,67.4,73.0,70.2,66.0,98,92,72,29.95,29.82,1,-14,0,0.38
2013-6-4,75.4,69.5,66.0,67.0,65.1,63.0,98,86,68,30.10,29.93,3,0,0,0.00
2013-6-5,79.8,71.8,64.4,65.0,62.4,60.0,95,74,54,30.14,30.02,2,0,0,0.00
2013-6-6,74.1,70.8,67.2,72.0,67.2,60.0,97,88,69,30.03,29.81,1,0,0,0.29
2013-6-7,71.5,70.0,68.7,71.0,69.5,68.0,99,98,97,29.85,29.52,1,0,0,2.85
2013-6-8,81.4,72.6,65.7,71.0,68.7,65.0,99,89,63,30.09,29.81,2,0,0,0.01
2013-6-9,85.7,76.0,67.4,73.0,70.5,67.0,98,84,63,30.16,30.05,2,0,0,0.00
2013-6-10,79.8,74.5,72.0,76.0,72.5,70.0,98,93,83,30.10,29.89,2,0,0,0.59
2013-6-11,84.0,76.4,70.1,71.0,68.2,66.0,94,77,55,29.95,29.89,2,0,0,0.00
2013-6-12,88.9,77.8,65.4,76.0,70.7,64.0,97,80,60,29.97,29.86,1,0,0,0.00
2013-6-13,92.8,78.9,68.6,76.0,72.5,66.0,96,83,53,29.86,29.59,3,0,0,0.00
2013-6-14,79.3,70.9,62.3,67.0,60.7,58.0,95,72,51,30.01,29.72,4,0,0,0.00
2013-6-15,83.0,71.9,59.8,65.0,62.0,58.0,96,74,48,30.12,30.01,4,0,0,0.00
2013-6-16,85.5,75.9,65.4,71.0,66.1,59.0,87,72,59,30.12,30.00,2,0,0,0.00
2013-6-17,83.1,76.6,71.2,74.0,70.1,66.0,87,80,71,30.03,29.93,2,0,0,0.00
2013-6-18,82.1,73.9,70.2,75.0,70.9,69.0,97,90,76,29.96,29.74,2,0,0,0.84
2013-6-19,77.7,71.5,65.3,70.0,67.7,65.0,99,88,73,30.12,29.88,1,0,0,0.03
2013-6-20,80.2,72.3,65.8,67.0,64.1,59.0,95,77,57,30.24,30.12,1,0,0,0.00
2013-6-21,81.4,70.5,59.5,66.0,60.6,56.0,89,73,44,30.26,30.19,1,0,0,0.01
2013-6-22,80.0,73.6,70.7,72.0,69.4,66.0,91,86,75,30.22,30.12,1,0,0,0.00
2013-6-23,83.8,76.3,68.9,75.0,71.4,67.0,96,85,67,30.22,30.12,0,0,0,0.00
2013-6-24,85.2,77.7,72.1,76.0,72.8,70.0,95,85,69,30.21,30.08,2,0,0,0.00
2013-6-25,88.7,77.2,70.7,76.0,71.7,69.0,94,83,59,30.12,30.00,4,0,0,0.07
2013-6-26,87.6,76.9,69.9,77.0,71.9,68.0,96,85,66,30.03,29.88,1,0,0,0.19
2013-6-27,86.5,76.6,68.2,78.0,72.5,67.0,97,87,71,29.92,29.71,2,0,0,0.00
2013-6-28,88.8,78.0,71.4,75.0,72.5,69.0,95,85,62,29.74,29.56,2,0,0,0.63
2013-6-29,82.1,74.8,69.8,75.0,71.8,69.0,97,91,77,29.72,29.60,1,0,0,0.64
2013-6-30,83.7,74.2,69.4,76.0,72.0,68.0,97,93,73,29.86,29.71,4,0,0,2.79
2013-7-1,79.4,73.7,69.5,77.0,72.0,69.0,98,94,85,29.99,29.84,1,0,0,0.48
2013-7-2,75.6,74.0,72.5,74.0,72.4,71.0,97,95,92,30.18,29.99,0,0,0,0.01
2013-7-3,82.4,76.0,73.4,77.0,74.3,73.0,97,94,82,30.24,30.15,2,0,0,1.03
2013-7-4,84.8,78.3,72.7,76.0,73.3,71.0,97,85,65,30.28,30.17,2,0,0,0.00
2013-7-5,87.0,79.9,73.9,76.0,73.6,72.0,94,82,64,30.27,30.15,1,0,0,0.00
2013-7-6,84.7,78.6,75.0,75.0,73.4,72.0,93,84,71,30.25,30.11,1,0,0,0.00
2013-7-7,86.3,78.5,71.0,77.0,73.2,69.0,94,84,70,30.19,30.05,1,0,0,0.00
2013-7-8,85.2,77.5,72.5,75.0,72.9,71.0,96,86,67,30.17,30.08,0,0,0,0.01
2013-7-9,85.8,76.5,73.0,77.0,73.8,71.0,95,91,76,30.16,30.05,0,0,0,0.02
2013-7-10,86.0,77.7,71.9,77.0,73.7,69.0,96,88,71,30.11,29.94,2,0,0,0.30
2013-7-11,78.2,74.4,72.3,75.0,72.8,71.0,97,95,87,29.98,29.88,0,0,0,0.13
2013-7-12,74.9,72.6,71.0,71.0,70.4,69.0,96,93,88,30.02,29.87,1,0,0,0.00
2013-7-13,76.2,73.1,70.1,75.0,71.5,68.0,96,94,92,30.18,30.02,1,0,0,0.03
2013-7-14,85.1,77.5,70.5,76.0,73.2,69.0,97,87,70,30.30,30.18,2,0,0,0.00
2013-7-15,86.5,78.8,70.6,75.0,72.4,69.0,97,82,62,30.32,30.24,1,-15,0,0.00
2013-7-16,90.3,80.4,70.6,79.0,73.9,69.0,96,81,62,30.27,30.17,1,0,0,0.00
2013-7-17,89.4,82.6,76.8,78.0,75.8,73.0,94,81,62,30.21,30.09,1,0,0,0.00
2013-7-18,90.7,81.8,75.3,81.0,76.5,74.0,95,84,63,30.13,30.02,1,0,0,0.00
2013-7-19,88.6,81.6,75.6,78.0,75.6,74.0,95,82,67,30.09,29.97,2,0,0,0.00
2013-7-20,87.5,80.0,75.4,78.0,74.8,72.0,91,84,70,30.02,29.91,2,0,0,0.00
2013-7-21,85.3,78.2,74.3,77.0,74.2,72.0,94,87,73,29.98,29.89,1,0,0,0.00
2013-7-22,85.7,78.5,72.4,77.0,74.0,71.0,96,87,71,29.94,29.82,3,0,0,0.00
2013-7-23,88.2,80.4,75.0,75.0,73.6,72.0,92,80,61,29.84,29.71,1,0,0,0.00
2013-7-24,90.8,80.9,71.6,74.0,71.8,70.0,93,75,51,29.83,29.73,1,0,0,0.00
2013-7-25,78.5,73.4,67.8,72.0,68.8,66.0,95,85,74,30.03,29.82,2,0,0,0.16
2013-7-26,81.7,73.4,64.2,70.0,66.0,63.0,95,79,60,30.11,30.02,1,0,0,0.00
2013-7-27,84.1,73.3,67.4,72.0,68.7,66.0,96,86,58,30.05,29.94,2,0,0,0.02
2013-7-28,84.6,76.4,69.8,74.0,71.0,69.0,96,84,63,30.00,29.92,1,0,0,0.22
2013-7-29,83.9,75.4,69.4,70.0,68.1,65.0,95,80,54,30.15,29.98,1,0,0,0.12
2013-7-30,84.1,74.2,63.1,71.0,66.2,61.0,92,77,55,30.22,30.14,1,0,0,0.00
2013-7-31,81.3,76.1,71.4,74.0,71.4,69.0,93,85,74,30.14,30.00,1,0,0,0.16
2013-8-1,82.9,74.5,70.5,75.0,71.5,68.0,95,90,75,30.01,29.86,0,0,0,0.22
2013-8-2,85.1,75.0,66.6,73.0,69.3,65.0,96,84,61,30.02,29.90,2,0,0,0.49
2013-8-3,86.6,76.6,71.7,78.0,73.2,70.0,95,90,70,30.01,29.91,1,0,0,0.32
2013-8-4,82.4,74.7,68.9,72.0,68.1,62.0,96,81,51,30.03,29.88,0,-13,0,0.00
2013-8-5,80.5,72.5,66.3,70.0,65.8,64.0,93,80,60,30.10,30.00,1,0,0,0.00
2013-8-6,79.6,73.7,66.9,70.0,67.8,65.0,95,82,69,30.06,29.99,3,0,0,0.05
2013-8-7,82.8,76.2,69.6,73.0,70.2,67.0,93,82,66,30.10,30.02,1,0,0,0.00
2013-8-8,85.3,79.0,72.3,76.0,72.8,70.0,93,82,67,30.07,29.99,3,0,0,0.00
2013-8-9,87.9,79.8,74.9,78.0,74.4,72.0,93,83,69,30.04,29.97,0,0,0,0.00
2013-8-10,91.3,79.5,73.5,79.0,74.8,72.0,96,86,63,30.09,30.00,2,0,0,0.87
2013-8-11,88.5,78.2,72.0,77.0,74.0,71.0,96,88,65,30.11,30.00,2,0,0,0.01
2013-8-12,89.0,80.3,73.3,76.0,74.2,71.0,96,83,56,30.05,29.92,2,0,0,0.00
2013-8-13,87.1,77.6,71.3,78.0,73.8,70.0,96,88,69,29.97,29.77,4,0,0,1.25
2013-8-14,75.1,72.0,63.8,73.0,66.8,61.0,93,84,74,30.09,29.82,1,0,0,0.00
2013-8-15,73.6,66.2,60.9,64.0,59.9,58.0,92,81,59,30.17,30.09,1,0,0,0.00
2013-8-16,69.5,65.8,60.5,63.0,61.3,59.0,93,85,76,30.19,30.10,1,0,0,0.00
2013-8-17,71.3,67.0,63.6,70.0,65.0,61.0,95,93,88,30.19,30.12,0,0,0,0.04
2013-8-18,77.3,71.9,68.6,71.0,68.7,66.0,96,90,80,30.21,30.11,2,0,0,0.02
2013-8-19,72.8,69.4,66.9,71.0,68.0,65.0,96,95,91,30.20,30.10,0,0,0,0.10
2013-8-20,79.9,73.4,66.8,74.0,70.7,66.0,97,91,79,30.19,30.11,1,0,0,0.00
2013-8-21,83.1,75.3,71.2,78.0,73.1,70.0,96,93,80,30.23,30.10,1,0,0,0.01
2013-8-22,86.4,77.4,70.5,76.0,72.1,69.0,97,84,61,30.14,29.99,0,-14,0,0.00
2013-8-23,84.5,76.1,69.0,76.0,71.3,66.0,95,85,71,30.07,29.93,0,0,0,0.00
2013-8-24,79.6,72.1,65.4,66.0,63.5,60.0,91,76,52,30.31,30.08,1,0,0,0.00
2013-8-25,77.3,69.4,62.0,65.0,61.6,59.0,95,78,54,30.40,30.29,1,0,0,0.00
2013-8-26,81.1,68.5,57.0,64.0,60.4,55.0,96,78,51,30.33,30.12,1,0,0,0.00
2013-8-27,86.7,74.1,63.4,75.0,67.9,60.0,92,81,60,30.13,29.96,1,0,0,0.00
2013-8-28,81.3,76.2,69.9,77.0,73.3,68.0,96,91,79,29.98,29.86,0,0,0,0.00
2013-8-29,84.5,79.2,75.3,75.0,73.2,71.0,90,82,68,30.01,29.83,5,0,0,0.00
2013-8-30,86.1,76.0,68.0,71.0,68.4,64.0,95,79,51,30.06,29.93,0,0,0,0.00
2013-8-31,87.0,77.2,68.3,74.0,71.2,67.0,95,83,63,29.97,29.86,1,0,0,0.00
2013-9-1,90.6,77.1,71.3,78.0,73.1,70.0,97,88,61,29.90,29.77,1,0,0,0.44
2013-9-2,85.1,76.5,70.2,76.0,72.9,69.0,97,89,69,29.89,29.80,2,-14,0,0.01
2013-9-3,86.2,77.6,71.9,77.0,73.4,71.0,96,87,67,29.93,29.79,1,0,0,0.01
2013-9-4,82.6,74.6,67.2,73.0,69.5,65.0,95,84,68,30.09,29.94,1,0,0,0.00
2013-9-5,85.0,74.4,65.9,70.0,65.4,60.0,96,76,43,30.10,30.03,2,0,0,0.00
2013-9-6,79.4,71.9,64.8,66.0,62.4,58.0,91,73,57,30.18,30.08,1,-14,0,0.00
2013-9-7,80.7,70.4,60.6,69.0,63.9,59.0,95,81,61,30.14,29.98,1,0,0,0.00
2013-9-8,85.4,73.8,64.2,70.0,65.3,62.0,96,77,47,29.99,29.91,1,0,0,0.00
2013-9-9,84.6,75.7,67.3,72.0,69.3,66.0,95,81,62,30.15,29.99,2,0,0,0.00
2013-9-10,88.1,77.8,68.9,73.0,70.1,67.0,96,79,54,30.23,30.14,1,0,0,0.00
2013-9-11,88.2,77.4,68.7,72.0,69.9,67.0,94,79,53,30.20,30.07,0,0,0,0.00
2013-9-12,89.2,78.1,70.3,75.0,71.1,68.0,91,79,59,30.07,29.80,0,0,0,0.00
2013-9-13,83.2,75.7,69.2,72.0,64.6,55.0,92,71,44,29.89,29.75,0,0,0,0.00
2013-9-14,74.9,66.7,60.4,58.0,54.0,49.0,85,65,50,30.14,29.89,1,0,0,0.00
2013-9-15,78.7,66.3,54.1,63.0,57.9,52.0,93,76,52,30.25,30.12,2,0,0,0.00
2013-9-16,72.2,67.1,65.2,70.0,65.1,62.0,96,93,88,30.14,30.11,0,0,0,0.00
2013-9-17,74.2,67.5,61.0,58.0,55.0,52.0,85,66,47,30.33,30.22,2,0,0,0.00
2013-9-18,71.2,61.6,52.5,56.0,52.2,49.0,92,73,47,30.32,30.18,1,0,0,0.00
2013-9-19,74.9,65.0,56.3,64.0,58.4,53.0,92,80,60,30.20,30.09,1,0,0,0.00
2013-9-20,69.2,66.6,63.1,67.0,64.4,62.0,96,92,87,30.10,29.98,0,0,0,0.06
2013-9-21,75.5,69.5,65.8,72.0,67.8,64.0,96,94,85,29.97,29.73,0,0,0,0.25
2013-9-22,74.2,67.1,61.4,65.0,62.3,59.0,97,85,62,29.90,29.72,1,0,0,0.17
2013-9-23,71.7,62.4,55.6,59.0,55.4,53.0,94,79,57,30.08,29.91,2,0,0,0.00
2013-9-24,73.4,62.9,55.5,62.0,57.4,54.0,95,83,62,30.11,29.96,1,0,0,0.00
2013-9-25,71.6,63.1,53.7,64.0,59.1,52.0,97,87,69,29.97,29.88,0,0,0,0.00
2013-9-26,74.5,65.9,58.6,63.0,59.1,55.0,95,80,51,30.04,29.88,0,0,0,0.00
2013-9-27,71.5,62.9,56.1,60.0,57.0,54.0,95,82,62,30.20,30.04,2,0,0,0.00
2013-9-28,70.0,61.7,54.0,58.0,55.3,52.0,95,81,62,30.27,30.18,1,0,0,0.00
2013-9-29,71.7,62.0,54.5,58.0,55.1,53.0,95,80,54,30.18,30.04,1,0,0,0.00
2013-9-30,73.5,62.2,53.9,62.0,56.6,52.0,96,83,56,30.11,30.00,1,0,0,0.00
2013-10-1,80.5,65.6,54.0,66.0,59.2,52.0,96,81,53,30.13,30.02,1,0,0,0.00
2013-10-2,83.2,69.2,58.1,65.0,61.1,56.0,97,78,48,30.14,30.05,1,0,0,0.00
2013-10-3,83.9,70.8,60.4,67.0,63.0,58.0,96,78,51,30.13,30.05,1,0,0,0.00
2013-10-4,85.1,72.5,62.2,69.0,65.0,61.0,96,79,52,30.13,30.04,1,0,0,0.00
2013-10-5,87.5,73.8,62.8,70.0,65.3,61.0,96,77,45,30.11,30.02,1,0,0,0.05
2013-10-6,83.4,73.2,63.8,72.0,67.8,62.0,96,84,62,30.07,29.93,1,0,0,0.00
2013-10-7,73.6,70.5,62.6,71.0,68.9,60.0,97,94,90,29.99,29.85,2,0,0,1.68
2013-10-8,62.4,60.2,56.3,59.0,52.4,49.0,89,76,68,30.21,30.00,1,0,0,0.00
2013-10-9,62.6,58.7,55.0,57.0,53.8,51.0,94,84,79,30.20,30.11,7,0,0,0.06
2013-10-10,61.4,57.2,54.1,60.0,55.8,53.0,99,94,93,30.10,29.95,1,0,0,0.11
2013-10-11,66.6,62.3,58.9,63.0,60.5,58.0,96,93,88,29.98,29.92,1,0,0,0.00
2013-10-12,68.3,64.5,62.1,66.0,62.7,60.0,95,93,90,30.09,29.96,1,0,0,0.00
2013-10-13,66.3,63.8,61.9,64.0,62.2,61.0,96,95,92,30.21,30.08,0,0,0,0.03
2013-10-14,64.3,62.0,58.5,62.0,60.4,56.0,97,94,90,30.25,30.19,0,0,0,0.02
2013-10-15,70.3,62.1,53.8,63.0,58.0,53.0,96,87,73,30.21,30.06,1,0,0,0.00
2013-10-16,68.6,65.0,62.2,64.0,62.3,61.0,95,90,83,30.07,29.96,0,0,0,0.00
2013-10-17,72.3,66.6,60.7,67.0,63.5,59.0,96,90,78,29.97,29.84,2,0,0,0.00
2013-10-18,68.2,63.0,56.2,66.0,55.7,49.0,94,78,58,30.05,29.88,3,0,0,0.00
2013-10-19,68.5,62.3,58.9,65.0,59.9,56.0,95,92,87,29.98,29.82,0,0,0,0.00
2013-10-20,61.7,54.7,46.8,58.0,47.9,43.0,95,79,54,30.14,29.91,1,0,0,0.00
2013-10-21,65.3,51.5,40.5,53.0,46.2,39.0,97,84,51,30.18,30.02,1,-16,0,0.00
2013-10-22,61.4,55.3,51.9,59.0,53.5,50.0,95,93,89,30.02,29.82,0,0,0,0.00
2013-10-23,65.8,58.2,49.0,58.0,48.5,36.0,97,74,37,30.01,29.69,6,0,0,0.00
2013-10-24,56.8,47.6,38.0,43.0,37.1,34.0,87,69,45,30.20,30.02,2,0,0,0.00
2013-10-25,53.0,46.4,41.4,37.0,34.4,31.0,77,64,45,30.34,30.20,7,0,0,0.00
2013-10-27,66.5,56.6,47.5,48.0,38.7,-99.9,88,59,42,30.14,0.00,2,-40,0,0.00
2013-10-28,66.8,54.9,44.9,57.0,50.0,43.0,94,84,63,30.27,30.14,0,0,0,0.00
2013-10-29,70.1,59.6,51.9,61.0,55.0,50.0,95,85,66,30.35,30.26,0,0,0,0.00
2013-10-30,71.4,61.2,58.7,62.0,50.6,-99.9,93,78,69,30.21,0.00,0,-56,0,0.00
2013-10-31,72.2,64.5,56.3,65.0,58.7,55.0,96,82,65,30.20,29.91,2,0,0,0.00
2013-11-1,71.3,68.2,62.1,67.0,65.5,61.0,96,91,82,29.91,29.67,4,0,0,0.43
2013-11-2,69.0,60.8,52.6,61.0,53.3,45.0,96,79,43,29.94,29.70,4,0,0,0.01
2013-11-3,61.8,51.3,42.9,45.0,41.7,40.0,90,72,45,30.39,29.95,1,0,0,0.00
2013-11-4,53.2,45.1,39.0,40.0,35.8,33.0,89,71,48,30.57,30.39,2,0,0,0.00
2013-11-5,56.6,48.7,39.2,50.0,42.2,34.0,87,78,70,30.56,30.45,2,0,0,0.00
2013-11-6,69.0,56.1,44.7,58.0,51.2,43.0,94,84,64,30.44,30.12,1,0,0,0.00
2013-11-7,67.9,59.0,46.3,62.0,52.4,36.0,97,80,52,30.12,29.93,5,0,0,0.00
2013-11-8,55.9,45.8,36.5,37.0,32.3,28.0,87,62,35,30.34,30.12,3,0,0,0.00
2013-11-9,56.9,44.5,31.7,40.0,34.1,30.0,93,70,39,30.40,30.21,3,0,0,0.00
2013-11-10,70.3,52.3,37.3,42.0,38.2,32.0,94,64,30,30.25,30.07,2,0,0,0.00
2013-11-11,58.1,46.6,34.7,37.0,33.0,30.0,87,62,36,30.37,30.16,1,0,0,0.00
2013-11-12,59.8,42.1,35.6,42.0,34.5,19.0,93,77,47,30.45,30.07,5,0,0,0.01
2013-11-13,44.4,35.2,28.0,24.0,20.8,18.0,84,58,37,30.56,30.45,3,0,0,0.00
2013-11-14,56.9,39.3,24.9,31.0,25.9,22.0,91,64,29,30.49,30.35,3,0,0,0.00
2013-11-15,58.7,44.8,29.6,46.0,36.2,27.0,91,74,48,30.38,30.23,1,0,0,0.00
2013-11-16,63.1,55.2,48.9,57.0,52.2,46.0,95,90,81,30.28,30.22,1,0,0,0.00
2013-11-17,67.3,60.6,54.4,64.0,58.4,53.0,96,92,82,30.23,29.90,1,0,0,0.00
2013-11-18,73.9,65.6,55.0,67.0,52.9,33.0,96,67,35,29.97,29.80,4,0,0,0.02
2013-11-19,55.8,49.1,43.4,34.0,31.1,29.0,65,51,38,30.33,29.97,2,0,0,0.00
2013-11-20,51.5,44.4,37.3,39.0,32.8,29.0,82,64,51,30.47,30.34,2,0,0,0.00
2013-11-21,58.9,49.5,41.6,48.0,42.4,37.0,84,77,67,30.52,30.41,2,0,0,0.00
2013-11-22,69.5,58.4,47.7,61.0,53.4,45.0,94,83,73,30.41,30.09,1,0,0,0.00
2013-11-23,61.6,55.5,44.2,60.0,44.0,22.0,95,69,38,30.18,30.04,2,0,0,0.00
2013-11-24,43.9,33.8,26.7,25.0,11.5,5.0,59,41,27,30.57,30.19,6,0,0,0.00
2013-11-25,42.6,32.2,21.2,18.0,13.5,9.0,77,49,26,30.62,30.41,2,0,0,0.00
2013-11-26,64.5,44.6,36.9,64.0,35.9,17.0,97,74,42,30.41,29.60,4,0,0,0.10
2013-11-27,46.9,40.1,30.8,46.0,36.5,20.0,97,87,64,30.18,29.52,6,0,0,0.00
2013-11-28,43.2,32.7,24.5,27.0,22.3,19.0,89,67,41,30.51,30.19,2,0,0,0.00
2013-11-29,48.7,34.4,25.4,30.0,18.9,-99.9,94,66,45,30.67,30.50,1,-62,0,0.00
2013-11-30,46.8,32.7,30.2,34.0,12.4,-99.9,90,64,59,30.67,30.40,4,-136,0,0.00
2013-12-1,57.7,37.6,29.2,39.0,16.9,-99.9,94,63,42,30.39,30.05,2,-126,0,0.00
2013-12-2,59.0,38.7,37.0,45.0,15.4,-99.9,91,64,58,30.04,29.83,1,-177,0,0.02
2013-12-3,54.8,45.6,34.1,48.0,41.7,33.0,96,86,72,30.01,29.89,0,0,0,0.00
2013-12-4,62.8,55.8,49.5,58.0,53.3,48.0,95,91,83,30.10,30.00,0,0,0,0.00
2013-12-5,66.0,61.2,55.5,64.0,60.0,54.0,98,96,93,30.14,30.04,1,0,0,0.01
2013-12-6,77.3,70.0,65.0,66.0,64.4,62.0,95,83,66,30.07,29.96,8,1,0,0.00
2013-12-7,68.9,49.2,43.2,65.0,44.7,36.0,94,84,73,30.47,29.99,3,0,0,0.12
2013-12-8,43.1,36.4,34.0,36.0,32.6,30.0,96,87,67,30.48,30.32,4,0,0,0.08
2013-12-9,44.7,39.5,34.9,44.0,38.7,34.0,97,97,96,30.31,30.08,1,0,0,0.17
2013-12-10,46.5,43.6,30.2,45.0,42.4,28.0,97,95,87,30.34,29.94,3,0,0,0.32
2013-12-11,48.3,35.6,25.3,34.0,28.3,24.0,96,78,43,30.48,30.31,2,0,0,0.00
2013-12-12,43.4,35.0,27.8,30.0,23.9,17.0,94,67,35,30.45,30.30,2,0,0,0.00
2013-12-13,51.0,36.0,24.2,33.0,25.2,21.0,91,69,33,30.42,30.29,1,0,0,0.00
2013-12-14,47.3,40.9,37.8,42.0,37.0,30.0,96,86,55,30.33,29.80,2,0,0,0.85
2013-12-15,52.9,43.3,34.5,44.0,37.0,30.0,97,80,58,30.09,29.72,4,0,0,0.02
2013-12-16,54.0,40.2,29.3,38.0,33.3,28.0,94,78,51,30.20,30.09,4,0,0,0.00
2013-12-17,59.3,46.3,32.6,41.0,37.0,31.0,95,73,48,30.14,29.89,2,0,0,0.00
2013-12-18,49.0,39.8,30.9,39.0,26.7,19.0,88,62,32,30.31,30.06,2,0,0,0.00
2013-12-19,61.7,44.3,28.4,33.0,28.3,25.0,91,59,28,30.34,30.23,2,0,0,0.00
2013-12-20,65.2,52.6,39.2,54.0,44.7,33.0,89,75,60,30.26,30.12,2,0,0,0.00
2013-12-21,72.4,60.8,49.2,66.0,56.2,47.0,93,85,69,30.16,30.04,4,0,0,0.06
2013-12-22,76.6,70.2,64.0,68.0,65.5,62.0,96,85,68,30.10,30.01,3,0,0,0.32
2013-12-23,65.4,59.8,46.5,65.0,58.2,40.0,97,94,77,30.17,30.00,2,0,0,1.25
2013-12-24,46.3,41.3,30.6,39.0,29.9,16.0,79,65,47,30.48,30.15,3,0,0,0.00
2013-12-25,38.8,30.3,24.8,21.0,16.4,13.0,80,58,36,30.58,30.43,2,0,0,0.00
2013-12-26,52.4,36.7,25.4,31.0,27.1,21.0,89,71,36,30.43,30.27,2,0,0,0.00
2013-12-27,51.4,36.9,26.5,29.0,25.8,22.0,91,68,33,30.49,30.39,1,0,0,0.00
2013-12-28,57.3,40.8,26.1,38.0,29.9,24.0,93,69,33,30.43,30.18,1,0,0,0.00
2013-12-29,53.8,47.4,42.4,53.0,45.3,38.0,97,92,71,30.18,29.72,4,0,0,1.78
2013-12-30,53.5,44.7,35.4,47.0,39.6,34.0,98,83,66,30.15,29.94,1,0,0,0.00
2013-12-31,50.7,41.7,32.5,37.0,32.3,25.0,95,72,37,30.37,30.14,6,0,0,0.01
2014-1-1,50.3,38.7,30.7,34.0,30.1,27.0,92,74,42,30.45,30.18,1,0,0,0.00
2014-1-2,46.4,41.7,36.5,44.0,38.7,33.0,96,89,76,30.18,29.59,2,0,0,0.28